createdAt,value
2023-02-15T00:01:29.820Z,6.69
2023-02-15T00:04:17.787Z,6.86
2023-02-15T00:07:08.433Z,6.76
2023-02-15T00:09:55.317Z,6.57
2023-02-15T00:12:44.429Z,6.84
2023-02-15T00:15:31.957Z,6.68
2023-02-15T00:18:20.016Z,6.58
2023-02-15T00:21:08.584Z,6.64
2023-02-15T00:23:55.079Z,6.54
2023-02-15T00:26:43.628Z,6.60
2023-02-15T00:29:30.444Z,6.68
2023-02-15T00:32:16.994Z,6.55
2023-02-15T00:35:05.343Z,6.65
2023-02-15T00:37:53.510Z,6.69
2023-02-15T00:40:40.293Z,6.46
2023-02-15T00:43:28.230Z,6.56
2023-02-15T00:46:14.780Z,6.37
2023-02-15T00:49:01.618Z,6.29
2023-02-15T00:51:49.732Z,6.32
2023-02-15T00:54:36.728Z,6.38
2023-02-15T00:57:23.759Z,6.45
2023-02-15T01:00:11.616Z,6.35
2023-02-15T01:02:58.267Z,6.28
2023-02-15T01:05:45.036Z,6.37
2023-02-15T01:08:33.423Z,6.04
2023-02-15T01:11:23.881Z,5.67
2023-02-15T01:14:14.259Z,5.63
2023-02-15T01:17:02.033Z,5.37
2023-02-15T01:19:48.903Z,5.32
2023-02-15T01:22:35.808Z,5.20
2023-02-15T01:25:25.457Z,4.97
2023-02-15T01:28:12.868Z,4.55
2023-02-15T01:31:00.314Z,4.66
2023-02-15T01:33:47.983Z,4.70
2023-02-15T01:36:36.350Z,4.39
2023-02-15T01:39:23.256Z,4.46
2023-02-15T01:42:13.919Z,4.36
2023-02-15T01:45:02.683Z,4.12
2023-02-15T01:47:54.087Z,4.13
2023-02-15T01:50:45.189Z,4.26
2023-02-15T01:53:38.043Z,4.23
2023-02-15T01:56:31.593Z,4.34
2023-02-15T01:59:24.092Z,4.23
2023-02-15T02:02:15.232Z,4.02
2023-02-15T02:05:07.404Z,3.94
2023-02-15T02:07:57.077Z,3.73
2023-02-15T02:10:43.449Z,3.80
2023-02-15T02:13:30.742Z,3.65
2023-02-15T02:16:26.139Z,3.56
2023-02-15T02:19:43.814Z,3.41
2023-02-15T02:22:58.562Z,3.18
2023-02-15T02:26:46.883Z,3.12
2023-02-15T02:29:58.728Z,3.15
2023-02-15T02:33:19.599Z,3.25
2023-02-15T02:36:17.603Z,2.92
2023-02-15T02:39:16.036Z,2.85
2023-02-15T02:42:08.564Z,2.80
2023-02-15T02:45:00.128Z,2.85
2023-02-15T02:47:51.394Z,2.52
2023-02-15T02:50:41.700Z,2.66
2023-02-15T02:53:33.454Z,2.64
2023-02-15T02:56:24.690Z,2.55
2023-02-15T02:59:14.945Z,2.67
2023-02-15T03:02:08.377Z,2.80
2023-02-15T03:05:04.340Z,2.85
2023-02-15T03:07:55.555Z,2.90
2023-02-15T03:10:43.632Z,2.80
2023-02-15T03:13:30.807Z,2.49
2023-02-15T03:16:27.851Z,2.36
2023-02-15T03:19:18.579Z,2.39
2023-02-15T03:22:10.397Z,2.37
2023-02-15T03:25:01.747Z,2.28
2023-02-15T03:27:51.687Z,2.22
2023-02-15T03:30:44.197Z,2.12
2023-02-15T03:33:31.592Z,2.07
2023-02-15T03:36:24.972Z,1.92
2023-02-15T03:39:19.531Z,1.86
2023-02-15T03:42:15.081Z,1.87
2023-02-15T03:45:06.011Z,2.05
2023-02-15T03:47:54.916Z,1.93
2023-02-15T03:51:00.462Z,1.82
2023-02-15T03:53:48.929Z,1.64
2023-02-15T03:56:36.690Z,1.72
2023-02-15T03:59:42.239Z,1.67
2023-02-15T04:02:39.155Z,1.61
2023-02-15T04:05:25.632Z,1.60
2023-02-15T04:08:13.274Z,1.56
2023-02-15T04:10:58.658Z,1.54
2023-02-15T04:13:47.052Z,1.48
2023-02-15T04:16:34.155Z,1.45
2023-02-15T04:19:38.205Z,1.46
2023-02-15T04:22:42.603Z,1.43
2023-02-15T04:25:29.404Z,1.43
2023-02-15T04:28:16.082Z,1.43
2023-02-15T04:31:03.202Z,1.42
2023-02-15T04:33:51.301Z,1.42
2023-02-15T04:36:38.417Z,1.42
2023-02-15T04:39:24.929Z,1.37
2023-02-15T04:42:11.650Z,1.39
2023-02-15T04:44:58.404Z,1.34
2023-02-15T04:47:45.280Z,1.38
2023-02-15T04:50:33.341Z,1.39
2023-02-15T04:53:20.015Z,1.42
2023-02-15T04:56:06.895Z,1.41
2023-02-15T04:58:53.512Z,1.42
2023-02-15T05:01:40.628Z,1.41
2023-02-15T05:04:27.357Z,1.46
2023-02-15T05:07:15.829Z,1.49
2023-02-15T05:10:02.594Z,1.44
2023-02-15T05:12:49.653Z,1.45
2023-02-15T05:15:38.828Z,1.40
2023-02-15T05:18:25.880Z,1.35
2023-02-15T05:21:14.587Z,1.36
2023-02-15T05:24:22.522Z,1.43
2023-02-15T05:27:35.103Z,1.60
2023-02-15T05:30:23.014Z,1.42
2023-02-15T05:33:09.944Z,1.10
2023-02-15T05:35:56.671Z,1.47
2023-02-15T05:38:43.424Z,1.41
2023-02-15T05:41:31.618Z,1.49
2023-02-15T05:44:18.735Z,1.42
2023-02-15T05:47:08.162Z,1.45
2023-02-15T05:49:54.573Z,1.30
2023-02-15T05:52:41.536Z,1.59
2023-02-15T05:55:28.297Z,1.42
2023-02-15T05:58:16.478Z,1.42
2023-02-15T06:01:10.604Z,1.44
2023-02-15T06:03:57.415Z,1.45
2023-02-15T06:06:44.018Z,1.40
2023-02-15T06:09:31.504Z,1.20
2023-02-15T06:12:18.215Z,1.38
2023-02-15T06:15:07.126Z,1.31
2023-02-15T06:17:54.060Z,1.15
2023-02-15T06:20:40.866Z,1.15
2023-02-15T06:23:27.737Z,1.10
2023-02-15T06:26:14.525Z,1.09
2023-02-15T06:29:01.317Z,1.04
2023-02-15T06:31:49.575Z,0.52
2023-02-15T06:34:36.400Z,1.12
2023-02-15T06:37:24.772Z,1.35
2023-02-15T06:40:13.474Z,1.26
2023-02-15T06:43:02.096Z,1.12
2023-02-15T06:45:49.916Z,1.18
2023-02-15T06:48:39.138Z,1.14
2023-02-15T06:51:25.779Z,1.20
2023-02-15T06:54:12.721Z,1.31
2023-02-15T06:56:59.486Z,1.63
2023-02-15T06:59:46.226Z,1.63
2023-02-15T07:02:32.922Z,1.74
2023-02-15T07:05:21.362Z,1.74
2023-02-15T07:08:07.920Z,1.86
2023-02-15T07:11:17.474Z,1.94
2023-02-15T07:14:04.206Z,2.21
2023-02-15T07:16:51.188Z,2.24
2023-02-15T07:19:38.076Z,2.27
2023-02-15T07:22:26.254Z,2.41
2023-02-15T07:25:14.235Z,2.59
2023-02-15T07:28:03.388Z,2.66
2023-02-15T07:30:50.266Z,2.78
2023-02-15T07:33:37.011Z,2.83
2023-02-15T07:36:23.599Z,2.88
2023-02-15T07:39:11.793Z,2.91
2023-02-15T07:41:58.500Z,3.09
2023-02-15T07:44:50.463Z,2.95
2023-02-15T07:47:37.250Z,2.94
2023-02-15T07:50:24.130Z,2.97
2023-02-15T07:53:10.833Z,3.02
2023-02-15T07:56:01.732Z,2.98
2023-02-15T07:58:56.668Z,2.93
2023-02-15T08:01:43.135Z,2.93
2023-02-15T08:04:29.991Z,2.89
2023-02-15T08:07:16.804Z,2.87
2023-02-15T08:10:04.536Z,2.77
2023-02-15T08:12:53.645Z,2.84
2023-02-15T08:15:41.421Z,3.03
2023-02-15T08:18:28.829Z,3.27
2023-02-15T08:21:16.958Z,3.32
2023-02-15T08:24:06.047Z,3.35
2023-02-15T08:26:54.880Z,3.35
2023-02-15T08:29:44.465Z,3.29
2023-02-15T08:32:32.116Z,3.37
2023-02-15T08:35:19.716Z,3.47
2023-02-15T08:38:07.096Z,3.58
2023-02-15T08:40:54.535Z,3.67
2023-02-15T08:43:41.707Z,3.78
2023-02-15T08:46:31.007Z,3.84
2023-02-15T08:49:20.801Z,3.63
2023-02-15T08:52:08.110Z,3.70
2023-02-15T08:54:54.960Z,3.81
2023-02-15T08:57:45.917Z,3.75
2023-02-15T09:00:32.615Z,3.98
2023-02-15T09:03:20.809Z,3.95
2023-02-15T09:06:08.716Z,4.06
2023-02-15T09:08:55.813Z,3.87
2023-02-15T09:11:44.273Z,3.91
2023-02-15T09:14:30.814Z,3.92
2023-02-15T09:17:17.538Z,4.03
2023-02-15T09:20:07.614Z,4.02
2023-02-15T09:22:58.115Z,4.02
2023-02-15T09:25:45.935Z,3.94
2023-02-15T09:28:33.689Z,3.94
2023-02-15T09:31:24.327Z,3.89
2023-02-15T09:34:11.014Z,3.79
2023-02-15T09:36:59.299Z,3.98
2023-02-15T09:39:48.862Z,3.99
2023-02-15T09:42:56.414Z,4.07
2023-02-15T09:46:04.466Z,4.01
2023-02-15T09:48:59.326Z,4.14
2023-02-15T09:52:10.630Z,4.17
2023-02-15T09:55:13.331Z,4.33
2023-02-15T09:58:10.041Z,4.49
2023-02-15T10:01:03.627Z,4.61
2023-02-15T10:04:11.073Z,4.71
2023-02-15T10:07:07.751Z,4.64
2023-02-15T10:10:14.345Z,4.72
2023-02-15T10:13:16.513Z,4.87
2023-02-15T10:16:20.736Z,5.01
2023-02-15T10:19:19.915Z,4.90
2023-02-15T10:22:23.326Z,4.95
2023-02-15T10:25:32.446Z,5.05
2023-02-15T10:28:22.823Z,5.28
2023-02-15T10:31:22.496Z,5.25
2023-02-15T10:34:20.471Z,5.23
2023-02-15T10:37:26.606Z,5.37
2023-02-15T10:40:21.231Z,5.42
2023-02-15T10:43:26.730Z,5.47
2023-02-15T10:46:25.056Z,5.53
2023-02-15T10:49:43.158Z,5.67
2023-02-15T10:52:42.981Z,5.50
2023-02-15T10:55:41.557Z,5.65
2023-02-15T10:58:45.953Z,5.45
2023-02-15T11:01:36.947Z,5.55
2023-02-15T11:04:42.166Z,5.50
2023-02-15T11:07:34.660Z,5.66
2023-02-15T11:10:32.318Z,5.75
2023-02-15T11:13:21.193Z,5.76
2023-02-15T11:16:17.653Z,5.90
2023-02-15T11:19:11.365Z,6.00
2023-02-15T11:22:03.139Z,6.05
2023-02-15T11:24:51.451Z,5.96
2023-02-15T11:27:42.537Z,6.05
2023-02-15T11:30:42.627Z,6.23
2023-02-15T11:33:36.530Z,6.29
2023-02-15T11:36:27.510Z,6.22
2023-02-15T11:39:18.766Z,6.21
2023-02-15T11:42:14.261Z,6.44
2023-02-15T11:45:07.203Z,6.47
2023-02-15T11:47:55.857Z,6.64
2023-02-15T11:50:47.202Z,6.63
2023-02-15T11:53:40.817Z,6.74
2023-02-15T11:56:30.341Z,6.74
2023-02-15T11:59:29.261Z,6.67
2023-02-15T12:02:23.560Z,6.56
2023-02-15T12:05:20.858Z,6.44
2023-02-15T12:08:18.289Z,6.75
2023-02-15T12:11:13.402Z,6.72
2023-02-15T12:14:05.068Z,7.05
2023-02-15T12:16:55.568Z,6.81
2023-02-15T12:19:42.762Z,7.00
2023-02-15T12:22:32.699Z,6.96
2023-02-15T12:25:28.025Z,6.95
2023-02-15T12:28:29.073Z,7.02
2023-02-15T12:31:23.767Z,6.81
2023-02-15T12:34:15.569Z,6.76
2023-02-15T12:37:10.350Z,6.77
2023-02-15T12:39:59.065Z,6.62
2023-02-15T12:42:47.767Z,6.65
2023-02-15T12:45:36.238Z,6.68
2023-02-15T12:48:22.977Z,6.62
2023-02-15T12:51:11.729Z,6.81
2023-02-15T12:54:02.016Z,6.99
2023-02-15T12:56:48.586Z,6.81
2023-02-15T12:59:38.776Z,7.09
2023-02-15T13:02:31.949Z,7.15
2023-02-15T13:05:24.665Z,7.23
2023-02-15T13:08:15.948Z,7.26
2023-02-15T13:11:05.807Z,7.43
2023-02-15T13:13:55.067Z,7.70
2023-02-15T13:16:46.858Z,7.73
2023-02-15T13:19:38.052Z,8.01
2023-02-15T13:22:30.297Z,7.89
2023-02-15T13:25:21.924Z,7.92
2023-02-15T13:28:12.770Z,7.87
2023-02-15T13:31:00.903Z,7.88
2023-02-15T13:33:53.689Z,8.06
2023-02-15T13:36:47.168Z,8.04
2023-02-15T13:39:41.751Z,7.92
2023-02-15T13:42:34.724Z,7.95
2023-02-15T13:45:38.633Z,7.88
2023-02-15T13:48:46.952Z,7.69
2023-02-15T13:51:45.320Z,7.83
2023-02-15T13:54:45.546Z,7.96
2023-02-15T13:57:53.790Z,7.83
2023-02-15T14:00:50.076Z,7.89
2023-02-15T14:04:05.665Z,8.16
2023-02-15T14:07:36.498Z,8.36
2023-02-15T14:10:47.002Z,8.17
2023-02-15T14:13:54.561Z,8.23
2023-02-15T14:17:05.739Z,8.09
2023-02-15T14:19:56.963Z,8.06
2023-02-15T14:22:51.088Z,8.06
2023-02-15T14:25:42.463Z,8.12
2023-02-15T14:28:37.083Z,8.25
2023-02-15T14:31:42.981Z,8.14
2023-02-15T14:34:44.280Z,8.31
2023-02-15T14:37:43.032Z,8.31
2023-02-15T14:40:58.076Z,8.23
2023-02-15T14:43:57.083Z,8.18
2023-02-15T14:46:50.624Z,8.28
2023-02-15T14:49:40.109Z,8.12
2023-02-15T14:52:27.064Z,8.18
2023-02-15T14:55:38.633Z,8.19
2023-02-15T14:58:25.650Z,8.35
2023-02-15T15:01:13.776Z,8.38
2023-02-15T15:04:04.672Z,8.31
2023-02-15T15:07:02.924Z,8.36
2023-02-15T15:10:01.320Z,8.24
2023-02-15T15:12:50.746Z,8.28
2023-02-15T15:15:47.507Z,8.32
2023-02-15T15:18:52.149Z,8.28
2023-02-15T15:21:56.061Z,8.35
2023-02-15T15:24:54.574Z,8.21
2023-02-15T15:27:46.901Z,8.19
2023-02-15T15:30:55.692Z,8.21
2023-02-15T15:34:17.169Z,8.07
2023-02-15T15:37:49.497Z,7.85
2023-02-15T15:41:09.958Z,7.70
2023-02-15T15:44:39.012Z,7.64
2023-02-15T15:47:44.850Z,7.49
2023-02-15T15:50:33.359Z,7.32
2023-02-15T15:53:22.911Z,7.17
2023-02-15T15:56:16.322Z,7.09
2023-02-15T15:59:05.981Z,7.01
2023-02-15T16:01:53.140Z,7.03
2023-02-15T16:04:41.240Z,6.81
2023-02-15T16:07:28.445Z,6.92
2023-02-15T16:10:23.966Z,6.66
2023-02-15T16:13:15.929Z,6.49
2023-02-15T16:16:03.032Z,6.40
2023-02-15T16:18:50.815Z,6.41
2023-02-15T16:21:39.751Z,6.46
2023-02-15T16:25:11.933Z,6.36
2023-02-15T16:27:58.474Z,6.29
2023-02-15T16:30:45.615Z,5.97
2023-02-15T16:33:38.468Z,5.75
2023-02-15T16:36:27.904Z,5.57
2023-02-15T16:39:25.188Z,5.47
2023-02-15T16:42:16.528Z,5.18
2023-02-15T16:45:14.203Z,5.35
2023-02-15T16:48:07.641Z,5.16
2023-02-15T16:50:57.816Z,5.07
2023-02-15T16:53:49.365Z,5.02
2023-02-15T16:56:38.444Z,4.88
2023-02-15T16:59:34.356Z,4.70
2023-02-15T17:02:42.977Z,4.58
2023-02-15T17:05:33.311Z,4.49
2023-02-15T17:08:21.701Z,4.42
2023-02-15T17:11:19.883Z,4.41
2023-02-15T17:14:21.912Z,4.37
2023-02-15T17:17:10.211Z,4.40
2023-02-15T17:19:57.565Z,4.46
2023-02-15T17:22:44.058Z,4.34
2023-02-15T17:25:38.985Z,4.25
2023-02-15T17:28:29.269Z,4.25
2023-02-15T17:31:20.309Z,4.14
2023-02-15T17:34:07.197Z,4.03
2023-02-15T17:37:00.882Z,4.04
2023-02-15T17:39:48.736Z,3.98
2023-02-15T17:42:35.356Z,4.09
2023-02-15T17:45:23.721Z,3.89
2023-02-15T17:48:24.600Z,3.79
2023-02-15T17:51:15.195Z,3.78
2023-02-15T17:54:19.160Z,3.74
2023-02-15T17:57:11.432Z,3.60
2023-02-15T18:00:17.020Z,3.54
2023-02-15T18:03:21.385Z,3.70
2023-02-15T18:06:27.791Z,3.64
2023-02-15T18:09:33.999Z,3.54
2023-02-15T18:12:22.905Z,3.54
2023-02-15T18:15:13.146Z,3.46
2023-02-15T18:18:00.306Z,3.28
2023-02-15T18:20:46.883Z,3.24
2023-02-15T18:23:35.088Z,3.21
2023-02-15T18:26:23.810Z,3.20
2023-02-15T18:29:11.108Z,3.07
2023-02-15T18:31:59.590Z,3.04
2023-02-15T18:34:48.037Z,3.03
2023-02-15T18:37:35.299Z,3.08
2023-02-15T18:40:26.858Z,2.90
2023-02-15T18:43:14.449Z,3.24
2023-02-15T18:46:01.199Z,3.26
2023-02-15T18:48:47.842Z,3.08
2023-02-15T18:51:39.972Z,2.90
2023-02-15T18:54:27.012Z,2.80
2023-02-15T18:57:17.260Z,2.78
2023-02-15T19:00:05.820Z,2.74
2023-02-15T19:02:52.576Z,2.80
2023-02-15T19:05:39.124Z,2.77
2023-02-15T19:08:25.955Z,2.71
2023-02-15T19:11:16.594Z,2.44
2023-02-15T19:14:09.386Z,2.51
2023-02-15T19:16:56.715Z,2.47
2023-02-15T19:19:43.243Z,2.49
2023-02-15T19:22:32.806Z,2.42
2023-02-15T19:25:22.690Z,2.42
2023-02-15T19:28:17.141Z,2.33
2023-02-15T19:31:05.681Z,2.43
2023-02-15T19:33:53.124Z,2.35
2023-02-15T19:36:39.594Z,2.28
2023-02-15T19:39:30.012Z,2.20
2023-02-15T19:42:19.856Z,2.20
2023-02-15T19:45:14.963Z,2.10
2023-02-15T19:48:03.371Z,2.13
2023-02-15T19:50:50.547Z,2.27
2023-02-15T19:53:37.118Z,2.17
2023-02-15T19:56:27.024Z,2.24
2023-02-15T19:59:23.118Z,2.15
2023-02-15T20:02:14.687Z,2.04
2023-02-15T20:05:02.918Z,2.06
2023-02-15T20:07:52.084Z,1.99
2023-02-15T20:10:39.285Z,2.48
2023-02-15T20:13:26.437Z,2.34
2023-02-15T20:16:13.100Z,2.19
2023-02-15T20:18:59.869Z,2.28
2023-02-15T20:21:54.527Z,2.21
2023-02-15T20:24:40.971Z,2.12
2023-02-15T20:27:27.641Z,2.07
2023-02-15T20:30:19.822Z,2.09
2023-02-15T20:33:07.720Z,2.06
2023-02-15T20:35:54.538Z,2.08
2023-02-15T20:38:42.848Z,2.24
2023-02-15T20:41:39.244Z,2.22
2023-02-15T20:44:27.793Z,2.04
2023-02-15T20:47:14.284Z,1.96
2023-02-15T20:50:01.934Z,2.12
2023-02-15T20:52:50.567Z,1.98
2023-02-15T20:55:39.729Z,2.00
2023-02-15T20:58:30.226Z,1.91
2023-02-15T21:01:19.859Z,1.92
2023-02-15T21:04:08.825Z,1.94
2023-02-15T21:06:56.215Z,2.15
2023-02-15T21:09:42.777Z,1.94
2023-02-15T21:12:31.282Z,1.79
2023-02-15T21:15:31.747Z,1.80
2023-02-15T21:18:21.767Z,1.78
2023-02-15T21:21:08.277Z,1.80
2023-02-15T21:23:55.419Z,1.89
2023-02-15T21:26:46.041Z,1.85
2023-02-15T21:29:33.943Z,1.78
2023-02-15T21:32:20.775Z,1.70
2023-02-15T21:35:07.986Z,1.69
2023-02-15T21:37:55.104Z,1.64
2023-02-15T21:40:41.943Z,1.69
2023-02-15T21:43:46.164Z,1.74
2023-02-15T21:46:51.519Z,1.62
2023-02-15T21:49:38.297Z,1.58
2023-02-15T21:52:24.124Z,1.58
2023-02-15T21:55:14.957Z,1.59
2023-02-15T21:58:01.923Z,1.67
2023-02-15T22:00:49.594Z,1.57
2023-02-15T22:03:39.659Z,1.63
2023-02-15T22:06:26.375Z,1.72
2023-02-15T22:09:17.808Z,1.77
2023-02-15T22:12:05.213Z,1.60
2023-02-15T22:14:54.647Z,1.57
2023-02-15T22:17:41.247Z,1.50
2023-02-15T22:20:29.570Z,1.47
2023-02-15T22:23:16.290Z,1.41
2023-02-15T22:26:07.638Z,1.39
2023-02-15T22:28:54.468Z,1.41
2023-02-15T22:31:42.105Z,1.42
2023-02-15T22:34:32.280Z,1.42
2023-02-15T22:37:21.229Z,1.45
2023-02-15T22:40:09.685Z,1.47
2023-02-15T22:42:58.697Z,1.42
2023-02-15T22:45:46.621Z,1.42
2023-02-15T22:48:34.738Z,1.37
2023-02-15T22:51:24.039Z,1.30
2023-02-15T22:54:12.312Z,1.46
2023-02-15T22:57:00.932Z,1.44
2023-02-15T22:59:47.976Z,1.33
2023-02-15T23:02:34.865Z,1.27
2023-02-15T23:05:23.917Z,1.26
2023-02-15T23:08:11.445Z,0.96
2023-02-15T23:10:59.457Z,1.14
2023-02-15T23:13:46.146Z,1.27
2023-02-15T23:16:34.889Z,1.15
2023-02-15T23:19:22.353Z,1.20
2023-02-15T23:22:13.791Z,1.16
2023-02-15T23:25:00.668Z,1.13
2023-02-15T23:27:57.966Z,1.21
2023-02-15T23:30:44.634Z,1.10
2023-02-15T23:33:34.926Z,1.33
2023-02-15T23:36:27.792Z,1.19
2023-02-15T23:39:33.929Z,1.10
2023-02-15T23:42:25.196Z,1.04
2023-02-15T23:45:23.269Z,1.04
2023-02-15T23:48:33.704Z,1.06
2023-02-15T23:51:20.991Z,1.06
2023-02-15T23:54:07.767Z,1.11
2023-02-15T23:56:59.207Z,0.98
2023-02-15T23:59:46.097Z,0.95
